sensor_id;sensor_type;location;lat;lon;timestamp;P1;durP1;ratioP1;P2;durP2;ratioP2
19095;SDS011;9680;52.520;13.332;2023-01-10T00:01:34;4.27;;;1.90;;
19095;SDS011;9680;52.520;13.332;2023-01-10T00:04:02;4.10;;;2.13;;
19095;SDS011;9680;52.520;13.332;2023-01-10T00:06:29;3.60;;;1.90;;
19095;SDS011;9680;52.520;13.332;2023-01-10T00:08:57;5.17;;;2.27;;
19095;SDS011;9680;52.520;13.332;2023-01-10T00:11:24;3.70;;;2.00;;
19095;SDS011;9680;52.520;13.332;2023-01-10T00:14:08;3.87;;;2.20;;
19095;SDS011;9680;52.520;13.332;2023-01-10T00:16:36;4.70;;;2.10;;
19095;SDS011;9680;52.520;13.332;2023-01-10T00:19:03;3.43;;;1.83;;
19095;SDS011;9680;52.520;13.332;2023-01-10T00:21:30;4.93;;;1.90;;
19095;SDS011;9680;52.520;13.332;2023-01-10T00:23:58;4.00;;;1.73;;
19095;SDS011;9680;52.520;13.332;2023-01-10T00:26:37;3.93;;;1.77;;
19095;SDS011;9680;52.520;13.332;2023-01-10T00:29:05;3.60;;;2.03;;
19095;SDS011;9680;52.520;13.332;2023-01-10T00:31:32;4.83;;;2.13;;
19095;SDS011;9680;52.520;13.332;2023-01-10T00:33:59;3.80;;;1.90;;
19095;SDS011;9680;52.520;13.332;2023-01-10T00:36:25;4.83;;;1.93;;
19095;SDS011;9680;52.520;13.332;2023-01-10T00:38:52;5.73;;;2.10;;
19095;SDS011;9680;52.520;13.332;2023-01-10T00:41:20;5.03;;;2.20;;
19095;SDS011;9680;52.520;13.332;2023-01-10T00:44:05;3.73;;;1.97;;
19095;SDS011;9680;52.520;13.332;2023-01-10T00:46:33;3.70;;;2.13;;
19095;SDS011;9680;52.520;13.332;2023-01-10T00:48:59;4.43;;;1.90;;
19095;SDS011;9680;52.520;13.332;2023-01-10T00:51:32;5.47;;;2.20;;
19095;SDS011;9680;52.520;13.332;2023-01-10T00:53:59;3.20;;;1.90;;
19095;SDS011;9680;52.520;13.332;2023-01-10T00:56:27;5.60;;;2.13;;
19095;SDS011;9680;52.520;13.332;2023-01-10T00:58:54;3.53;;;2.00;;
19095;SDS011;9680;52.520;13.332;2023-01-10T01:01:21;5.73;;;2.17;;
19095;SDS011;9680;52.520;13.332;2023-01-10T01:03:48;3.77;;;1.90;;
19095;SDS011;9680;52.520;13.332;2023-01-10T01:06:14;7.27;;;2.00;;
19095;SDS011;9680;52.520;13.332;2023-01-10T01:08:41;6.63;;;1.90;;
19095;SDS011;9680;52.520;13.332;2023-01-10T01:11:08;6.93;;;2.00;;
19095;SDS011;9680;52.520;13.332;2023-01-10T01:13:36;4.77;;;2.27;;
19095;SDS011;9680;52.520;13.332;2023-01-10T01:16:03;3.57;;;1.80;;
19095;SDS011;9680;52.520;13.332;2023-01-10T01:18:29;9.93;;;1.80;;
19095;SDS011;9680;52.520;13.332;2023-01-10T01:20:56;4.47;;;2.00;;
19095;SDS011;9680;52.520;13.332;2023-01-10T01:23:25;4.67;;;1.90;;
19095;SDS011;9680;52.520;13.332;2023-01-10T01:25:52;4.00;;;1.80;;
19095;SDS011;9680;52.520;13.332;2023-01-10T01:28:19;3.63;;;1.87;;
19095;SDS011;9680;52.520;13.332;2023-01-10T01:30:48;3.73;;;2.03;;
19095;SDS011;9680;52.520;13.332;2023-01-10T01:33:15;7.63;;;1.80;;
19095;SDS011;9680;52.520;13.332;2023-01-10T01:35:43;6.67;;;1.97;;
19095;SDS011;9680;52.520;13.332;2023-01-10T01:38:12;3.37;;;1.87;;
19095;SDS011;9680;52.520;13.332;2023-01-10T01:40:39;3.50;;;1.70;;
19095;SDS011;9680;52.520;13.332;2023-01-10T01:43:10;4.13;;;2.17;;
19095;SDS011;9680;52.520;13.332;2023-01-10T01:45:50;7.00;;;1.90;;
19095;SDS011;9680;52.520;13.332;2023-01-10T01:48:18;4.33;;;1.90;;
19095;SDS011;9680;52.520;13.332;2023-01-10T01:50:53;7.00;;;1.90;;
19095;SDS011;9680;52.520;13.332;2023-01-10T01:53:30;5.10;;;2.00;;
19095;SDS011;9680;52.520;13.332;2023-01-10T01:56:01;5.03;;;1.93;;
19095;SDS011;9680;52.520;13.332;2023-01-10T01:58:32;4.33;;;2.00;;
19095;SDS011;9680;52.520;13.332;2023-01-10T02:01:05;6.53;;;1.80;;
19095;SDS011;9680;52.520;13.332;2023-01-10T02:03:32;4.60;;;2.10;;
19095;SDS011;9680;52.520;13.332;2023-01-10T02:06:00;4.50;;;2.13;;
19095;SDS011;9680;52.520;13.332;2023-01-10T02:08:27;4.40;;;2.20;;
19095;SDS011;9680;52.520;13.332;2023-01-10T02:10:54;4.27;;;2.00;;
19095;SDS011;9680;52.520;13.332;2023-01-10T02:13:27;8.47;;;2.07;;
19095;SDS011;9680;52.520;13.332;2023-01-10T02:15:55;3.17;;;1.80;;
19095;SDS011;9680;52.520;13.332;2023-01-10T02:18:23;5.17;;;2.50;;
19095;SDS011;9680;52.520;13.332;2023-01-10T02:20:56;6.07;;;2.23;;
19095;SDS011;9680;52.520;13.332;2023-01-10T02:29:46;5.50;;;2.17;;
19095;SDS011;9680;52.520;13.332;2023-01-10T02:32:36;5.50;;;2.03;;
19095;SDS011;9680;52.520;13.332;2023-01-10T02:35:09;4.83;;;2.10;;
19095;SDS011;9680;52.520;13.332;2023-01-10T02:37:52;4.67;;;1.70;;
19095;SDS011;9680;52.520;13.332;2023-01-10T02:40:26;4.03;;;1.80;;
19095;SDS011;9680;52.520;13.332;2023-01-10T02:43:00;7.30;;;1.73;;
19095;SDS011;9680;52.520;13.332;2023-01-10T02:45:32;5.60;;;2.13;;
19095;SDS011;9680;52.520;13.332;2023-01-10T02:48:05;3.37;;;1.77;;
19095;SDS011;9680;52.520;13.332;2023-01-10T02:53:24;4.83;;;1.90;;
19095;SDS011;9680;52.520;13.332;2023-01-10T02:56:01;3.70;;;1.87;;
19095;SDS011;9680;52.520;13.332;2023-01-10T02:59:03;5.40;;;1.97;;
19095;SDS011;9680;52.520;13.332;2023-01-10T03:01:44;3.80;;;1.87;;
19095;SDS011;9680;52.520;13.332;2023-01-10T03:04:23;5.97;;;2.00;;
19095;SDS011;9680;52.520;13.332;2023-01-10T03:07:00;7.97;;;2.40;;
19095;SDS011;9680;52.520;13.332;2023-01-10T03:09:36;5.83;;;2.40;;
19095;SDS011;9680;52.520;13.332;2023-01-10T03:12:13;6.77;;;2.63;;
19095;SDS011;9680;52.520;13.332;2023-01-10T03:14:46;4.93;;;2.40;;
19095;SDS011;9680;52.520;13.332;2023-01-10T03:17:15;5.50;;;2.60;;
19095;SDS011;9680;52.520;13.332;2023-01-10T03:19:47;4.10;;;2.17;;
19095;SDS011;9680;52.520;13.332;2023-01-10T03:22:17;4.80;;;2.23;;
19095;SDS011;9680;52.520;13.332;2023-01-10T03:24:45;5.87;;;2.50;;
19095;SDS011;9680;52.520;13.332;2023-01-10T03:27:17;5.90;;;2.23;;
19095;SDS011;9680;52.520;13.332;2023-01-10T03:29:49;5.73;;;2.33;;
19095;SDS011;9680;52.520;13.332;2023-01-10T03:32:23;5.80;;;2.37;;
19095;SDS011;9680;52.520;13.332;2023-01-10T03:34:54;7.23;;;2.53;;
19095;SDS011;9680;52.520;13.332;2023-01-10T03:37:24;7.80;;;2.80;;
19095;SDS011;9680;52.520;13.332;2023-01-10T03:40:02;6.10;;;2.47;;
19095;SDS011;9680;52.520;13.332;2023-01-10T03:42:41;8.93;;;2.77;;
19095;SDS011;9680;52.520;13.332;2023-01-10T03:45:31;8.87;;;2.73;;
19095;SDS011;9680;52.520;13.332;2023-01-10T03:48:03;6.70;;;2.50;;
19095;SDS011;9680;52.520;13.332;2023-01-10T03:50:35;7.03;;;2.40;;
19095;SDS011;9680;52.520;13.332;2023-01-10T03:53:03;7.57;;;2.70;;
19095;SDS011;9680;52.520;13.332;2023-01-10T03:55:31;6.13;;;2.73;;
19095;SDS011;9680;52.520;13.332;2023-01-10T03:57:59;6.67;;;3.10;;
19095;SDS011;9680;52.520;13.332;2023-01-10T04:00:25;10.83;;;3.40;;
19095;SDS011;9680;52.520;13.332;2023-01-10T04:02:52;7.13;;;3.00;;
19095;SDS011;9680;52.520;13.332;2023-01-10T04:05:19;10.90;;;3.20;;
19095;SDS011;9680;52.520;13.332;2023-01-10T04:07:47;8.97;;;3.00;;
19095;SDS011;9680;52.520;13.332;2023-01-10T04:10:14;7.47;;;2.73;;
19095;SDS011;9680;52.520;13.332;2023-01-10T04:12:41;6.80;;;3.10;;
19095;SDS011;9680;52.520;13.332;2023-01-10T04:15:08;7.80;;;3.33;;
19095;SDS011;9680;52.520;13.332;2023-01-10T04:17:35;6.57;;;3.33;;
19095;SDS011;9680;52.520;13.332;2023-01-10T04:20:02;8.10;;;3.00;;
19095;SDS011;9680;52.520;13.332;2023-01-10T04:22:30;10.13;;;3.80;;
19095;SDS011;9680;52.520;13.332;2023-01-10T04:24:58;9.37;;;3.47;;
19095;SDS011;9680;52.520;13.332;2023-01-10T04:27:24;12.60;;;4.00;;
19095;SDS011;9680;52.520;13.332;2023-01-10T04:29:51;11.13;;;3.70;;
19095;SDS011;9680;52.520;13.332;2023-01-10T04:32:18;9.33;;;3.97;;
19095;SDS011;9680;52.520;13.332;2023-01-10T04:34:44;9.97;;;3.47;;
19095;SDS011;9680;52.520;13.332;2023-01-10T04:37:11;10.07;;;3.40;;
19095;SDS011;9680;52.520;13.332;2023-01-10T04:39:38;12.67;;;3.93;;
19095;SDS011;9680;52.520;13.332;2023-01-10T04:42:06;9.37;;;3.60;;
19095;SDS011;9680;52.520;13.332;2023-01-10T04:44:32;8.50;;;3.33;;
19095;SDS011;9680;52.520;13.332;2023-01-10T04:46:59;12.63;;;3.67;;
19095;SDS011;9680;52.520;13.332;2023-01-10T04:49:26;12.50;;;3.93;;
19095;SDS011;9680;52.520;13.332;2023-01-10T04:51:52;12.07;;;4.07;;
19095;SDS011;9680;52.520;13.332;2023-01-10T04:54:19;11.97;;;3.90;;
19095;SDS011;9680;52.520;13.332;2023-01-10T04:56:47;10.60;;;3.70;;
19095;SDS011;9680;52.520;13.332;2023-01-10T04:59:15;12.00;;;3.80;;
19095;SDS011;9680;52.520;13.332;2023-01-10T05:01:42;12.23;;;3.90;;
19095;SDS011;9680;52.520;13.332;2023-01-10T05:04:08;12.60;;;4.07;;
19095;SDS011;9680;52.520;13.332;2023-01-10T05:06:35;9.67;;;3.80;;
19095;SDS011;9680;52.520;13.332;2023-01-10T05:09:04;11.90;;;3.63;;
19095;SDS011;9680;52.520;13.332;2023-01-10T05:11:31;13.10;;;4.13;;
19095;SDS011;9680;52.520;13.332;2023-01-10T05:13:58;10.33;;;3.70;;
19095;SDS011;9680;52.520;13.332;2023-01-10T05:16:26;10.00;;;3.93;;
19095;SDS011;9680;52.520;13.332;2023-01-10T05:18:53;12.03;;;4.63;;
19095;SDS011;9680;52.520;13.332;2023-01-10T05:21:19;13.50;;;4.23;;
19095;SDS011;9680;52.520;13.332;2023-01-10T05:23:46;11.93;;;4.87;;
19095;SDS011;9680;52.520;13.332;2023-01-10T05:26:13;13.00;;;4.00;;
19095;SDS011;9680;52.520;13.332;2023-01-10T05:28:41;9.97;;;4.03;;
19095;SDS011;9680;52.520;13.332;2023-01-10T05:31:09;12.97;;;4.07;;
19095;SDS011;9680;52.520;13.332;2023-01-10T05:33:39;16.03;;;4.50;;
19095;SDS011;9680;52.520;13.332;2023-01-10T05:36:09;11.10;;;3.87;;
19095;SDS011;9680;52.520;13.332;2023-01-10T05:38:36;13.97;;;4.40;;
19095;SDS011;9680;52.520;13.332;2023-01-10T05:41:03;16.13;;;4.77;;
19095;SDS011;9680;52.520;13.332;2023-01-10T05:43:30;16.50;;;5.17;;
19095;SDS011;9680;52.520;13.332;2023-01-10T05:45:56;16.03;;;4.50;;
19095;SDS011;9680;52.520;13.332;2023-01-10T05:48:23;12.73;;;4.67;;
19095;SDS011;9680;52.520;13.332;2023-01-10T05:50:51;10.43;;;3.93;;
19095;SDS011;9680;52.520;13.332;2023-01-10T05:53:18;15.53;;;4.43;;
19095;SDS011;9680;52.520;13.332;2023-01-10T05:55:51;15.43;;;4.60;;
19095;SDS011;9680;52.520;13.332;2023-01-10T05:58:19;14.17;;;4.43;;
19095;SDS011;9680;52.520;13.332;2023-01-10T06:00:46;21.50;;;4.57;;
19095;SDS011;9680;52.520;13.332;2023-01-10T06:03:13;14.57;;;4.20;;
19095;SDS011;9680;52.520;13.332;2023-01-10T06:05:39;18.87;;;4.83;;
19095;SDS011;9680;52.520;13.332;2023-01-10T06:08:07;12.60;;;4.00;;
19095;SDS011;9680;52.520;13.332;2023-01-10T06:10:34;14.00;;;4.73;;
19095;SDS011;9680;52.520;13.332;2023-01-10T06:13:01;15.77;;;4.50;;
19095;SDS011;9680;52.520;13.332;2023-01-10T06:15:29;15.17;;;4.47;;
19095;SDS011;9680;52.520;13.332;2023-01-10T06:17:56;11.33;;;4.23;;
19095;SDS011;9680;52.520;13.332;2023-01-10T06:20:22;14.67;;;4.40;;
19095;SDS011;9680;52.520;13.332;2023-01-10T06:22:49;17.23;;;5.20;;
19095;SDS011;9680;52.520;13.332;2023-01-10T06:25:17;19.40;;;4.40;;
19095;SDS011;9680;52.520;13.332;2023-01-10T06:27:44;14.70;;;5.10;;
19095;SDS011;9680;52.520;13.332;2023-01-10T06:30:11;14.97;;;4.43;;
19095;SDS011;9680;52.520;13.332;2023-01-10T06:32:39;20.47;;;4.70;;
19095;SDS011;9680;52.520;13.332;2023-01-10T06:37:53;14.07;;;4.40;;
19095;SDS011;9680;52.520;13.332;2023-01-10T06:40:21;20.13;;;4.90;;
19095;SDS011;9680;52.520;13.332;2023-01-10T06:42:48;19.67;;;4.87;;
19095;SDS011;9680;52.520;13.332;2023-01-10T06:45:15;16.40;;;4.67;;
19095;SDS011;9680;52.520;13.332;2023-01-10T06:47:42;22.70;;;4.97;;
19095;SDS011;9680;52.520;13.332;2023-01-10T06:50:09;14.63;;;4.40;;
19095;SDS011;9680;52.520;13.332;2023-01-10T06:52:36;17.57;;;7.23;;
19095;SDS011;9680;52.520;13.332;2023-01-10T06:55:03;19.13;;;5.20;;
19095;SDS011;9680;52.520;13.332;2023-01-10T06:57:32;14.40;;;4.87;;
19095;SDS011;9680;52.520;13.332;2023-01-10T06:59:59;13.43;;;4.43;;
19095;SDS011;9680;52.520;13.332;2023-01-10T07:02:26;18.90;;;4.80;;
19095;SDS011;9680;52.520;13.332;2023-01-10T07:04:53;14.73;;;4.50;;
19095;SDS011;9680;52.520;13.332;2023-01-10T07:07:20;16.70;;;4.80;;
19095;SDS011;9680;52.520;13.332;2023-01-10T07:09:46;18.93;;;5.17;;
19095;SDS011;9680;52.520;13.332;2023-01-10T07:12:13;11.93;;;4.83;;
19095;SDS011;9680;52.520;13.332;2023-01-10T07:14:42;16.30;;;4.80;;
19095;SDS011;9680;52.520;13.332;2023-01-10T07:17:08;16.50;;;5.40;;
19095;SDS011;9680;52.520;13.332;2023-01-10T07:19:35;20.17;;;5.73;;
19095;SDS011;9680;52.520;13.332;2023-01-10T07:22:02;15.63;;;4.87;;
19095;SDS011;9680;52.520;13.332;2023-01-10T07:24:28;15.20;;;5.33;;
19095;SDS011;9680;52.520;13.332;2023-01-10T07:26:55;15.87;;;5.47;;
19095;SDS011;9680;52.520;13.332;2023-01-10T07:29:22;16.40;;;5.50;;
19095;SDS011;9680;52.520;13.332;2023-01-10T07:31:50;16.77;;;5.43;;
19095;SDS011;9680;52.520;13.332;2023-01-10T07:34:17;16.07;;;5.53;;
19095;SDS011;9680;52.520;13.332;2023-01-10T07:36:44;22.17;;;5.47;;
19095;SDS011;9680;52.520;13.332;2023-01-10T07:39:10;14.87;;;5.43;;
19095;SDS011;9680;52.520;13.332;2023-01-10T07:41:37;16.83;;;5.67;;
19095;SDS011;9680;52.520;13.332;2023-01-10T07:44:04;15.33;;;5.60;;
19095;SDS011;9680;52.520;13.332;2023-01-10T07:46:30;18.73;;;5.67;;
19095;SDS011;9680;52.520;13.332;2023-01-10T07:48:59;23.07;;;6.07;;
19095;SDS011;9680;52.520;13.332;2023-01-10T07:51:25;13.57;;;5.30;;
19095;SDS011;9680;52.520;13.332;2023-01-10T07:53:52;15.50;;;5.70;;
19095;SDS011;9680;52.520;13.332;2023-01-10T07:56:19;18.80;;;5.50;;
19095;SDS011;9680;52.520;13.332;2023-01-10T07:58:45;19.17;;;6.57;;
19095;SDS011;9680;52.520;13.332;2023-01-10T08:01:12;17.43;;;6.20;;
19095;SDS011;9680;52.520;13.332;2023-01-10T08:03:39;18.23;;;5.87;;
19095;SDS011;9680;52.520;13.332;2023-01-10T08:06:08;15.80;;;5.70;;
19095;SDS011;9680;52.520;13.332;2023-01-10T08:08:36;14.70;;;5.90;;
19095;SDS011;9680;52.520;13.332;2023-01-10T08:11:03;20.63;;;6.60;;
19095;SDS011;9680;52.520;13.332;2023-01-10T08:13:31;24.33;;;5.83;;
19095;SDS011;9680;52.520;13.332;2023-01-10T08:15:58;17.37;;;5.83;;
19095;SDS011;9680;52.520;13.332;2023-01-10T08:18:25;14.47;;;5.07;;
19095;SDS011;9680;52.520;13.332;2023-01-10T08:20:52;16.33;;;5.57;;
19095;SDS011;9680;52.520;13.332;2023-01-10T08:23:21;16.27;;;5.40;;
19095;SDS011;9680;52.520;13.332;2023-01-10T08:25:47;16.87;;;5.43;;
19095;SDS011;9680;52.520;13.332;2023-01-10T08:28:15;16.40;;;5.47;;
19095;SDS011;9680;52.520;13.332;2023-01-10T08:30:42;18.30;;;5.53;;
19095;SDS011;9680;52.520;13.332;2023-01-10T08:33:09;15.00;;;5.40;;
19095;SDS011;9680;52.520;13.332;2023-01-10T08:35:37;18.87;;;5.67;;
19095;SDS011;9680;52.520;13.332;2023-01-10T08:38:04;16.70;;;4.80;;
19095;SDS011;9680;52.520;13.332;2023-01-10T08:40:33;13.77;;;5.30;;
19095;SDS011;9680;52.520;13.332;2023-01-10T08:43:00;12.80;;;5.30;;
19095;SDS011;9680;52.520;13.332;2023-01-10T08:45:28;14.27;;;5.27;;
19095;SDS011;9680;52.520;13.332;2023-01-10T08:47:55;15.63;;;5.70;;
19095;SDS011;9680;52.520;13.332;2023-01-10T08:50:22;16.10;;;5.37;;
19095;SDS011;9680;52.520;13.332;2023-01-10T08:52:50;14.87;;;5.90;;
19095;SDS011;9680;52.520;13.332;2023-01-10T08:55:16;15.23;;;5.77;;
19095;SDS011;9680;52.520;13.332;2023-01-10T08:57:45;15.87;;;5.20;;
19095;SDS011;9680;52.520;13.332;2023-01-10T09:00:12;16.03;;;5.73;;
19095;SDS011;9680;52.520;13.332;2023-01-10T09:02:39;11.67;;;5.53;;
19095;SDS011;9680;52.520;13.332;2023-01-10T09:05:06;19.47;;;5.67;;
19095;SDS011;9680;52.520;13.332;2023-01-10T09:07:33;15.20;;;5.73;;
19095;SDS011;9680;52.520;13.332;2023-01-10T09:10:00;15.23;;;5.60;;
19095;SDS011;9680;52.520;13.332;2023-01-10T09:12:27;16.97;;;5.67;;
19095;SDS011;9680;52.520;13.332;2023-01-10T09:15:12;20.40;;;5.63;;
19095;SDS011;9680;52.520;13.332;2023-01-10T09:17:40;14.30;;;4.90;;
19095;SDS011;9680;52.520;13.332;2023-01-10T09:20:08;13.63;;;4.80;;
19095;SDS011;9680;52.520;13.332;2023-01-10T09:22:35;12.90;;;4.87;;
19095;SDS011;9680;52.520;13.332;2023-01-10T09:25:02;18.53;;;5.13;;
19095;SDS011;9680;52.520;13.332;2023-01-10T09:27:29;15.30;;;4.83;;
19095;SDS011;9680;52.520;13.332;2023-01-10T09:29:56;11.67;;;5.03;;
19095;SDS011;9680;52.520;13.332;2023-01-10T09:32:24;15.80;;;5.20;;
19095;SDS011;9680;52.520;13.332;2023-01-10T09:34:51;14.07;;;5.03;;
19095;SDS011;9680;52.520;13.332;2023-01-10T09:37:17;12.57;;;4.60;;
19095;SDS011;9680;52.520;13.332;2023-01-10T09:39:44;13.27;;;4.77;;
19095;SDS011;9680;52.520;13.332;2023-01-10T09:42:26;14.57;;;5.20;;
19095;SDS011;9680;52.520;13.332;2023-01-10T09:45:02;13.47;;;4.70;;
19095;SDS011;9680;52.520;13.332;2023-01-10T09:47:42;15.27;;;5.43;;
19095;SDS011;9680;52.520;13.332;2023-01-10T09:50:19;14.83;;;4.60;;
19095;SDS011;9680;52.520;13.332;2023-01-10T09:52:55;18.37;;;5.30;;
19095;SDS011;9680;52.520;13.332;2023-01-10T09:55:34;15.17;;;5.07;;
19095;SDS011;9680;52.520;13.332;2023-01-10T09:58:03;15.57;;;5.37;;
19095;SDS011;9680;52.520;13.332;2023-01-10T10:00:35;15.67;;;4.90;;
19095;SDS011;9680;52.520;13.332;2023-01-10T10:03:09;13.90;;;4.40;;
19095;SDS011;9680;52.520;13.332;2023-01-10T10:05:52;11.70;;;4.73;;
19095;SDS011;9680;52.520;13.332;2023-01-10T10:08:19;13.67;;;4.33;;
19095;SDS011;9680;52.520;13.332;2023-01-10T10:13:39;12.80;;;4.60;;
19095;SDS011;9680;52.520;13.332;2023-01-10T10:16:18;10.63;;;4.43;;
19095;SDS011;9680;52.520;13.332;2023-01-10T10:18:58;11.03;;;4.60;;
19095;SDS011;9680;52.520;13.332;2023-01-10T10:21:33;13.17;;;4.60;;
19095;SDS011;9680;52.520;13.332;2023-01-10T10:24:14;14.90;;;5.40;;
19095;SDS011;9680;52.520;13.332;2023-01-10T10:26:53;15.30;;;4.70;;
19095;SDS011;9680;52.520;13.332;2023-01-10T10:29:27;18.60;;;5.10;;
19095;SDS011;9680;52.520;13.332;2023-01-10T10:32:15;11.67;;;4.67;;
19095;SDS011;9680;52.520;13.332;2023-01-10T10:34:54;10.03;;;4.57;;
19095;SDS011;9680;52.520;13.332;2023-01-10T10:37:26;15.13;;;4.40;;
19095;SDS011;9680;52.520;13.332;2023-01-10T10:39:58;10.77;;;4.33;;
19095;SDS011;9680;52.520;13.332;2023-01-10T10:42:28;15.53;;;4.27;;
19095;SDS011;9680;52.520;13.332;2023-01-10T10:44:58;16.37;;;4.17;;
19095;SDS011;9680;52.520;13.332;2023-01-10T10:47:30;15.43;;;4.57;;
19095;SDS011;9680;52.520;13.332;2023-01-10T10:50:03;15.97;;;4.20;;
19095;SDS011;9680;52.520;13.332;2023-01-10T10:52:41;12.27;;;4.30;;
19095;SDS011;9680;52.520;13.332;2023-01-10T10:55:11;21.00;;;4.50;;
19095;SDS011;9680;52.520;13.332;2023-01-10T10:57:40;10.30;;;3.97;;
19095;SDS011;9680;52.520;13.332;2023-01-10T11:00:12;11.87;;;4.00;;
19095;SDS011;9680;52.520;13.332;2023-01-10T11:02:42;13.70;;;3.73;;
19095;SDS011;9680;52.520;13.332;2023-01-10T11:05:15;14.07;;;4.43;;
19095;SDS011;9680;52.520;13.332;2023-01-10T11:07:45;12.23;;;4.30;;
19095;SDS011;9680;52.520;13.332;2023-01-10T11:10:13;12.80;;;4.20;;
19095;SDS011;9680;52.520;13.332;2023-01-10T11:13:03;12.30;;;4.27;;
19095;SDS011;9680;52.520;13.332;2023-01-10T11:15:37;14.47;;;3.90;;
19095;SDS011;9680;52.520;13.332;2023-01-10T11:18:09;19.37;;;4.77;;
19095;SDS011;9680;52.520;13.332;2023-01-10T11:20:50;13.27;;;4.50;;
19095;SDS011;9680;52.520;13.332;2023-01-10T11:23:28;12.80;;;4.37;;
19095;SDS011;9680;52.520;13.332;2023-01-10T11:26:03;10.47;;;4.40;;
19095;SDS011;9680;52.520;13.332;2023-01-10T11:28:32;10.80;;;4.17;;
19095;SDS011;9680;52.520;13.332;2023-01-10T11:30:59;16.97;;;4.70;;
19095;SDS011;9680;52.520;13.332;2023-01-10T11:33:28;19.80;;;4.60;;
19095;SDS011;9680;52.520;13.332;2023-01-10T11:36:01;13.13;;;4.20;;
19095;SDS011;9680;52.520;13.332;2023-01-10T11:38:30;12.73;;;4.10;;
19095;SDS011;9680;52.520;13.332;2023-01-10T11:40:58;10.80;;;4.23;;
19095;SDS011;9680;52.520;13.332;2023-01-10T11:43:28;12.93;;;3.60;;
19095;SDS011;9680;52.520;13.332;2023-01-10T11:45:58;14.10;;;4.00;;
19095;SDS011;9680;52.520;13.332;2023-01-10T11:48:32;17.47;;;4.00;;
19095;SDS011;9680;52.520;13.332;2023-01-10T11:51:19;10.07;;;4.20;;
19095;SDS011;9680;52.520;13.332;2023-01-10T11:53:49;10.57;;;3.50;;
19095;SDS011;9680;52.520;13.332;2023-01-10T11:56:23;6.83;;;3.10;;
19095;SDS011;9680;52.520;13.332;2023-01-10T11:58:52;11.07;;;3.17;;
19095;SDS011;9680;52.520;13.332;2023-01-10T12:01:24;11.77;;;3.00;;
19095;SDS011;9680;52.520;13.332;2023-01-10T12:03:53;12.53;;;3.30;;
19095;SDS011;9680;52.520;13.332;2023-01-10T12:06:21;10.83;;;2.97;;
19095;SDS011;9680;52.520;13.332;2023-01-10T12:08:48;10.00;;;3.20;;
19095;SDS011;9680;52.520;13.332;2023-01-10T12:11:22;14.10;;;3.23;;
19095;SDS011;9680;52.520;13.332;2023-01-10T12:13:51;14.43;;;3.00;;
19095;SDS011;9680;52.520;13.332;2023-01-10T12:16:21;15.03;;;2.93;;
19095;SDS011;9680;52.520;13.332;2023-01-10T12:18:50;9.57;;;3.07;;
19095;SDS011;9680;52.520;13.332;2023-01-10T12:21:20;13.20;;;3.47;;
19095;SDS011;9680;52.520;13.332;2023-01-10T12:23:52;17.20;;;3.33;;
19095;SDS011;9680;52.520;13.332;2023-01-10T12:26:20;11.67;;;3.10;;
19095;SDS011;9680;52.520;13.332;2023-01-10T12:28:49;13.03;;;3.50;;
19095;SDS011;9680;52.520;13.332;2023-01-10T12:31:18;10.83;;;3.10;;
19095;SDS011;9680;52.520;13.332;2023-01-10T12:33:50;10.50;;;3.00;;
19095;SDS011;9680;52.520;13.332;2023-01-10T12:36:33;11.90;;;3.23;;
19095;SDS011;9680;52.520;13.332;2023-01-10T12:39:09;12.13;;;2.50;;
19095;SDS011;9680;52.520;13.332;2023-01-10T12:41:44;11.83;;;2.93;;
19095;SDS011;9680;52.520;13.332;2023-01-10T12:44:36;8.80;;;2.30;;
19095;SDS011;9680;52.520;13.332;2023-01-10T12:47:10;10.03;;;2.70;;
19095;SDS011;9680;52.520;13.332;2023-01-10T12:49:46;14.37;;;2.40;;
19095;SDS011;9680;52.520;13.332;2023-01-10T12:52:23;13.47;;;2.50;;
19095;SDS011;9680;52.520;13.332;2023-01-10T12:54:56;11.50;;;2.60;;
19095;SDS011;9680;52.520;13.332;2023-01-10T12:57:25;18.37;;;2.80;;
19095;SDS011;9680;52.520;13.332;2023-01-10T12:59:56;14.07;;;2.90;;
19095;SDS011;9680;52.520;13.332;2023-01-10T13:02:27;6.83;;;2.07;;
19095;SDS011;9680;52.520;13.332;2023-01-10T13:05:00;12.70;;;2.57;;
19095;SDS011;9680;52.520;13.332;2023-01-10T13:07:31;12.37;;;2.20;;
19095;SDS011;9680;52.520;13.332;2023-01-10T13:09:59;5.60;;;2.13;;
19095;SDS011;9680;52.520;13.332;2023-01-10T13:12:29;5.63;;;1.80;;
19095;SDS011;9680;52.520;13.332;2023-01-10T13:15:02;12.43;;;2.27;;
19095;SDS011;9680;52.520;13.332;2023-01-10T13:17:37;13.60;;;2.43;;
19095;SDS011;9680;52.520;13.332;2023-01-10T13:20:24;12.03;;;2.60;;
19095;SDS011;9680;52.520;13.332;2023-01-10T13:22:55;10.47;;;2.20;;
19095;SDS011;9680;52.520;13.332;2023-01-10T13:25:23;18.73;;;2.87;;
19095;SDS011;9680;52.520;13.332;2023-01-10T13:27:54;10.77;;;2.67;;
19095;SDS011;9680;52.520;13.332;2023-01-10T13:30:25;8.30;;;2.90;;
19095;SDS011;9680;52.520;13.332;2023-01-10T13:33:01;12.83;;;2.77;;
19095;SDS011;9680;52.520;13.332;2023-01-10T13:35:40;8.20;;;2.37;;
19095;SDS011;9680;52.520;13.332;2023-01-10T13:38:18;8.10;;;2.57;;
19095;SDS011;9680;52.520;13.332;2023-01-10T13:41:00;11.73;;;2.80;;
19095;SDS011;9680;52.520;13.332;2023-01-10T13:43:30;12.83;;;3.03;;
19095;SDS011;9680;52.520;13.332;2023-01-10T13:46:43;9.47;;;2.80;;
19095;SDS011;9680;52.520;13.332;2023-01-10T13:55:27;11.77;;;2.83;;
19095;SDS011;9680;52.520;13.332;2023-01-10T13:57:58;11.90;;;2.90;;
19095;SDS011;9680;52.520;13.332;2023-01-10T14:00:45;10.40;;;2.97;;
19095;SDS011;9680;52.520;13.332;2023-01-10T14:06:33;15.07;;;2.80;;
19095;SDS011;9680;52.520;13.332;2023-01-10T14:12:07;10.63;;;3.10;;
19095;SDS011;9680;52.520;13.332;2023-01-10T14:14:43;14.47;;;3.33;;
19095;SDS011;9680;52.520;13.332;2023-01-10T14:17:19;14.70;;;2.57;;
19095;SDS011;9680;52.520;13.332;2023-01-10T14:19:48;8.93;;;2.80;;
19095;SDS011;9680;52.520;13.332;2023-01-10T14:22:44;12.83;;;2.77;;
19095;SDS011;9680;52.520;13.332;2023-01-10T14:25:22;14.27;;;3.30;;
19095;SDS011;9680;52.520;13.332;2023-01-10T14:27:53;11.27;;;3.10;;
19095;SDS011;9680;52.520;13.332;2023-01-10T14:30:21;14.37;;;3.00;;
19095;SDS011;9680;52.520;13.332;2023-01-10T14:32:51;10.50;;;3.10;;
19095;SDS011;9680;52.520;13.332;2023-01-10T14:35:20;9.67;;;3.23;;
19095;SDS011;9680;52.520;13.332;2023-01-10T14:37:55;7.97;;;3.00;;
19095;SDS011;9680;52.520;13.332;2023-01-10T14:40:24;6.57;;;2.87;;
19095;SDS011;9680;52.520;13.332;2023-01-10T14:42:55;11.23;;;3.30;;
19095;SDS011;9680;52.520;13.332;2023-01-10T14:45:30;14.50;;;3.87;;
19095;SDS011;9680;52.520;13.332;2023-01-10T14:48:16;16.13;;;3.20;;
19095;SDS011;9680;52.520;13.332;2023-01-10T14:50:47;14.77;;;3.60;;
19095;SDS011;9680;52.520;13.332;2023-01-10T14:53:23;9.77;;;3.60;;
19095;SDS011;9680;52.520;13.332;2023-01-10T14:55:51;13.33;;;3.37;;
19095;SDS011;9680;52.520;13.332;2023-01-10T14:58:19;10.67;;;3.67;;
19095;SDS011;9680;52.520;13.332;2023-01-10T15:00:47;14.53;;;3.60;;
19095;SDS011;9680;52.520;13.332;2023-01-10T15:03:16;12.10;;;3.90;;
19095;SDS011;9680;52.520;13.332;2023-01-10T15:05:45;10.60;;;3.50;;
19095;SDS011;9680;52.520;13.332;2023-01-10T15:08:15;11.90;;;3.50;;
19095;SDS011;9680;52.520;13.332;2023-01-10T15:10:45;11.30;;;3.53;;
19095;SDS011;9680;52.520;13.332;2023-01-10T15:13:16;15.60;;;3.63;;
19095;SDS011;9680;52.520;13.332;2023-01-10T15:15:47;14.40;;;3.63;;
19095;SDS011;9680;52.520;13.332;2023-01-10T15:18:29;17.40;;;3.60;;
19095;SDS011;9680;52.520;13.332;2023-01-10T15:21:01;11.63;;;3.33;;
19095;SDS011;9680;52.520;13.332;2023-01-10T15:23:33;8.27;;;3.40;;
19095;SDS011;9680;52.520;13.332;2023-01-10T15:26:01;9.70;;;3.50;;